Airfield :
LOGIN :

Register | Disclaimer

   EN    FR    IT 

 










Legend :    VFR   Marginal VFR   IFR   Intensive IFR   Very Intensive IFR
Visi :
Ceiling :
>= 8 km
>= 3000ft
5 to 8 km
1000 to 3000 ft
1500m to 5 km
500 to 1000 ft
800 to 1500m
200 to 500 ft
< 800m
< 200 ft
Symbols :   Thunderstorms  Fog  Heavy snow  Heavy precipitations  Wind > 20 kt
SIGMETs :     Misc.  Thunderstorms  Icing  Turbulence  Mountain Waves  Volcanic Ashes






- Airport Elevation : 124 ft
- IATA code : NHT


EGWU - RAF Northolt

CURRENT METAR :
  • 051950Z 24015KT 9999 FEW020 SCT027 BKN060 10/06 Q1014 BECMG BKN020

EXPIRED METARs :
  • 051920Z 24014KT 9999 FEW020 SCT080 BKN170 10/06 Q1014 TEMPO SCT020 RMK BLU TEMPO WHT
  • 051850Z 24016KT 9999 FEW020 SCT080 BKN170 10/06 Q1014 TEMPO SCT020 RMK BLU TEMPO WHT
  • 051820Z 24015KT 9999 FEW020 SCT080 BKN160 10/06 Q1014 TEMPO SCT020 RMK BLU TEMPO WHT
  • 051750Z 24015KT 9999 FEW020 SCT080 BKN160 09/06 Q1015 TEMPO SCT020
  • 051722Z 24012KT 9999 FEW020 BKN080 09/06 Q1015 TEMPO SCT020 RMK BLU TEMPO WHT

TAF TAF EGWU
Valid from the 05 at 18:00 until the 06 at 12:00 UTC


051630Z 0518/0612 22012KT 9999 FEW015
BECMG 0518/0520 23015G25KT
PROB30
TEMPO 0518/0521 7000 -RA SCT016
BECMG 0520/0523 BKN012
TEMPO 0521/0612 4000 -RADZ
PROB40
TEMPO 0522/0612 3000 RADZ SCT006



MET'MAP, your aeronautical weather chart ! - Copyright ORBIFLY December 2007 - Disclaimer

ORBIFLY MET'MAP TEAM :

Programming & Development : Alexandra Zaïnal
Concept & original design : Baudouin d'Aumeries
Assistance for programming : Marc-Olivier Méhu
Technical & hardware support : Manuel Goepfert

Contact : metmap@orbifly.com




SOURCES & CREDITS :

   NOAA